MMMD

Licenciado Manuel Crescencio Rejon Int Airport

Airport
ICAO code
MMMD
IATA Code
MID
Summary
ICAO Region
CARSAM
ICAO Territory
Location

Mérida, Yucatán, Yucatan

Serving
Merida
Elevation
38 ft
Coordinates
20° 56' 13" N , 89° 39' 28" W
KCC
Airport BS
Bird Strike
Metar
MMMD 181345Z 18015KT 5SM SCT015 BKN300 31/24 A2984 RMK 8/508 HZ FU

International airport serving the city of Mérida, Mexico.

Climatology

Tropical Savanna climate (Köppen climate classification Aw)

Runways

Designator Length Width Surface Rops
17/35 2300 46 ASP Yes/Yes
10/28 3200 46 ASP Yes/Yes

Airport map

Aerial View

SKYbrary Partners:

Safety knowledge contributed by: